Kalber, Washington
Current Conditions -  °F | °C
As of 3:35 PM on Saturday 20 Dec 2014 (Local Time) from KCLS Reporting Station
Light Rain Light Rain  
Wind Chill: 52°   Ceiling: 1200
Heat Index: 52°   Visibility: 5mi
Dew Point: 50°   Wind: 14mph
Humidity: 94%   Direction: 180°S
Pressure: 29.53"   Gusts: 22mph
Location:  46.5326°N, 123.142°W
Report Text: KCLS 202335Z AUTO 18012G19KT 5SM -RA OVC012 11/10 A2953 RMK AO2
Loading
Personal Weather Stations






























Interactive Weather Map New forecast layout! Learn more

10-Day Weather Forecast

Advertisements
Track Severe Weather on mobile